createdAt,value
2023-04-21T00:02:24.336Z,21.27
2023-04-21T00:04:51.881Z,19.53
2023-04-21T00:07:20.088Z,21.87
2023-04-21T00:09:47.974Z,22.17
2023-04-21T00:12:14.656Z,19.63
2023-04-21T00:14:41.330Z,20.23
2023-04-21T00:17:07.979Z,21.67
2023-04-21T00:19:35.233Z,23.17
2023-04-21T00:22:02.066Z,20.50
2023-04-21T00:24:30.020Z,23.57
2023-04-21T00:26:57.164Z,21.83
2023-04-21T00:29:23.854Z,21.43
2023-04-21T00:31:50.572Z,20.50
2023-04-21T00:34:17.342Z,21.37
2023-04-21T00:36:44.027Z,23.63
2023-04-21T00:39:10.692Z,22.27
2023-04-21T00:41:37.953Z,20.90
2023-04-21T00:44:05.714Z,18.67
2023-04-21T00:46:33.467Z,19.83
2023-04-21T00:49:03.131Z,20.37
2023-04-21T00:51:31.681Z,20.57
2023-04-21T00:53:58.934Z,19.43
2023-04-21T00:56:26.499Z,18.90
2023-04-21T00:58:53.797Z,20.47
2023-04-21T01:01:20.638Z,23.03
2023-04-21T01:03:47.665Z,21.23
2023-04-21T01:06:14.779Z,22.17
2023-04-21T01:08:42.535Z,21.00
2023-04-21T01:11:11.112Z,21.97
2023-04-21T01:13:38.733Z,26.03
2023-04-21T01:16:07.943Z,22.47
2023-04-21T01:18:36.460Z,23.67
2023-04-21T01:21:04.343Z,22.93
2023-04-21T01:23:31.126Z,22.57
2023-04-21T01:25:58.213Z,24.13
2023-04-21T01:28:26.269Z,25.10
2023-04-21T01:30:53.168Z,24.60
2023-04-21T01:33:20.826Z,23.67
2023-04-21T01:35:47.641Z,23.67
2023-04-21T01:38:19.540Z,25.87
2023-04-21T01:40:52.602Z,24.87
2023-04-21T01:43:21.102Z,22.13
2023-04-21T01:45:48.146Z,24.93
2023-04-21T01:48:14.986Z,27.97
2023-04-21T01:50:41.735Z,25.77
2023-04-21T01:53:08.421Z,23.27
2023-04-21T01:55:35.168Z,23.13
2023-04-21T01:58:01.829Z,25.17
2023-04-21T02:00:28.665Z,25.67
2023-04-21T02:02:55.460Z,23.93
2023-04-21T02:05:22.221Z,25.53
2023-04-21T02:07:48.940Z,22.53
2023-04-21T02:10:16.135Z,22.23
2023-04-21T02:12:42.907Z,24.67
2023-04-21T02:15:10.121Z,23.27
2023-04-21T02:17:36.836Z,24.53
2023-04-21T02:20:04.452Z,20.07
2023-04-21T02:22:32.387Z,21.43
2023-04-21T02:24:59.123Z,24.67
2023-04-21T02:27:25.836Z,19.43
2023-04-21T02:29:52.524Z,23.63
2023-04-21T02:32:25.582Z,22.80
2023-04-21T02:34:53.258Z,20.93
2023-04-21T02:37:20.938Z,21.80
2023-04-21T02:39:47.931Z,20.23
2023-04-21T02:42:14.656Z,20.93
2023-04-21T02:44:43.320Z,21.97
2023-04-21T02:47:10.031Z,19.77
2023-04-21T02:49:41.378Z,20.33
2023-04-21T02:52:08.072Z,19.20
2023-04-21T02:54:34.769Z,20.47
2023-04-21T02:57:02.068Z,21.37
2023-04-21T02:59:29.105Z,21.20
2023-04-21T03:01:55.801Z,20.73
2023-04-21T03:04:24.432Z,20.73
2023-04-21T03:06:52.525Z,21.57
2023-04-21T03:09:19.349Z,21.60
2023-04-21T03:11:46.236Z,22.70
2023-04-21T03:14:12.966Z,21.77
2023-04-21T03:16:39.695Z,23.53
2023-04-21T03:19:06.658Z,21.47
2023-04-21T03:21:33.346Z,25.97
2023-04-21T03:24:00.029Z,21.30
2023-04-21T03:26:26.690Z,19.67
2023-04-21T03:28:53.346Z,21.60
2023-04-21T03:31:20.171Z,23.23
2023-04-21T03:33:46.841Z,23.60
2023-04-21T03:36:13.552Z,23.63
2023-04-21T03:38:40.369Z,22.70
2023-04-21T03:41:07.052Z,25.50
2023-04-21T03:43:33.717Z,23.00
2023-04-21T03:46:00.541Z,24.73
2023-04-21T03:48:28.638Z,21.87
2023-04-21T03:50:55.768Z,22.53
2023-04-21T03:53:22.445Z,25.53
2023-04-21T03:55:52.154Z,22.73
2023-04-21T03:58:18.809Z,21.63
2023-04-21T04:00:45.563Z,22.73
2023-04-21T04:03:12.425Z,23.70
2023-04-21T04:05:39.347Z,22.70
2023-04-21T04:08:06.525Z,22.50
2023-04-21T04:10:33.233Z,23.57
2023-04-21T04:12:59.929Z,26.27
2023-04-21T04:15:27.788Z,22.10
2023-04-21T04:17:54.502Z,24.37
2023-04-21T04:20:21.564Z,25.83
2023-04-21T04:22:48.253Z,25.07
2023-04-21T04:25:16.951Z,21.03
2023-04-21T04:27:44.414Z,23.80
2023-04-21T04:30:12.503Z,25.50
2023-04-21T04:32:42.316Z,24.43
2023-04-21T04:35:10.151Z,25.27
2023-04-21T04:37:37.514Z,23.43
2023-04-21T04:40:06.356Z,23.90
2023-04-21T04:42:34.850Z,22.30
2023-04-21T04:45:01.984Z,23.40
2023-04-21T04:47:29.198Z,23.30
2023-04-21T04:49:55.914Z,24.67
2023-04-21T04:52:22.632Z,23.60
2023-04-21T04:54:49.429Z,25.03
2023-04-21T04:57:16.216Z,23.00
2023-04-21T04:59:43.085Z,26.07
2023-04-21T05:02:10.695Z,25.83
2023-04-21T05:04:37.918Z,26.73
2023-04-21T05:07:07.593Z,24.03
2023-04-21T05:09:34.677Z,22.17
2023-04-21T05:12:01.687Z,24.17
2023-04-21T05:14:28.337Z,27.03
2023-04-21T05:16:55.196Z,25.57
2023-04-21T05:19:21.970Z,24.87
2023-04-21T05:21:48.695Z,25.10
2023-04-21T05:24:15.529Z,26.43
2023-04-21T05:26:42.232Z,25.27
2023-04-21T05:29:09.447Z,23.87
2023-04-21T05:31:36.310Z,25.30
2023-04-21T05:34:02.998Z,22.43
2023-04-21T05:36:30.430Z,23.93
2023-04-21T05:38:57.106Z,24.37
2023-04-21T05:41:23.987Z,24.10
2023-04-21T05:43:50.767Z,26.33
2023-04-21T05:46:17.559Z,25.63
2023-04-21T05:48:44.327Z,24.47
2023-04-21T05:51:18.403Z,22.00
2023-04-21T05:53:45.847Z,24.10
2023-04-21T05:56:13.846Z,23.07
2023-04-21T05:58:41.738Z,26.00
2023-04-21T06:01:08.963Z,23.13
2023-04-21T06:03:36.442Z,28.43
2023-04-21T06:06:04.941Z,29.70
2023-04-21T06:08:31.843Z,23.13
2023-04-21T06:10:58.631Z,23.60
2023-04-21T06:13:27.431Z,22.17
2023-04-21T06:15:55.140Z,24.13
2023-04-21T06:18:22.292Z,20.37
2023-04-21T06:20:52.763Z,19.17
2023-04-21T06:23:19.691Z,20.13
2023-04-21T06:25:46.502Z,23.10
2023-04-21T06:28:13.322Z,20.13
2023-04-21T06:30:40.084Z,19.17
2023-04-21T06:33:07.002Z,20.23
2023-04-21T06:35:33.913Z,21.40
2023-04-21T06:38:00.737Z,19.23
2023-04-21T06:40:27.456Z,19.97
2023-04-21T06:42:54.154Z,21.57
2023-04-21T06:45:20.954Z,19.00
2023-04-21T06:47:47.733Z,21.23
2023-04-21T06:50:14.434Z,20.53
2023-04-21T06:52:41.367Z,19.10
2023-04-21T06:55:08.500Z,21.50
2023-04-21T06:57:35.188Z,19.83
2023-04-21T07:00:02.139Z,17.30
2023-04-21T07:02:28.917Z,17.47
2023-04-21T07:04:55.810Z,18.73
2023-04-21T07:07:22.646Z,19.80
2023-04-21T07:09:49.406Z,18.27
2023-04-21T07:12:16.091Z,22.27
2023-04-21T07:14:42.933Z,19.47
2023-04-21T07:17:09.708Z,18.67
2023-04-21T07:19:37.124Z,17.05
2023-04-21T07:22:03.925Z,18.63
2023-04-21T07:24:30.717Z,17.50
2023-04-21T07:26:57.574Z,17.20
2023-04-21T07:29:24.379Z,18.80
2023-04-21T07:31:51.773Z,14.80
2023-04-21T07:34:18.473Z,13.80
2023-04-21T07:36:45.154Z,13.10
2023-04-21T07:39:12.114Z,12.20
2023-04-21T07:41:38.804Z,13.48
2023-04-21T07:44:05.789Z,13.18
2023-04-21T07:46:32.769Z,12.07
2023-04-21T07:49:02.803Z,12.27
2023-04-21T07:51:32.000Z,12.32
2023-04-21T07:53:58.994Z,14.13
2023-04-21T07:56:25.772Z,11.23
2023-04-21T07:58:52.527Z,12.75
2023-04-21T08:01:20.469Z,11.77
2023-04-21T08:03:47.474Z,11.93
2023-04-21T08:06:14.475Z,11.48
2023-04-21T08:08:41.713Z,11.80
2023-04-21T08:11:10.462Z,11.82
2023-04-21T08:13:37.761Z,12.30
2023-04-21T08:16:04.799Z,11.82
2023-04-21T08:18:31.643Z,12.20
2023-04-21T08:20:58.387Z,11.05
2023-04-21T08:23:25.098Z,10.52
2023-04-21T08:25:51.901Z,12.32
2023-04-21T08:28:18.588Z,11.70
2023-04-21T08:30:45.490Z,11.32
2023-04-21T08:33:13.828Z,10.60
2023-04-21T08:35:51.388Z,10.45
2023-04-21T08:38:28.235Z,11.25
2023-04-21T08:40:58.736Z,12.27
2023-04-21T08:43:26.052Z,14.68
2023-04-21T08:45:54.351Z,10.63
2023-04-21T08:48:23.694Z,11.32
2023-04-21T08:50:52.208Z,9.98
2023-04-21T08:53:19.042Z,11.32
2023-04-21T08:55:53.759Z,8.50
2023-04-21T08:58:26.589Z,9.15
2023-04-21T09:00:53.351Z,10.30
2023-04-21T09:03:26.348Z,10.50
2023-04-21T09:06:01.475Z,9.00
2023-04-21T09:08:30.378Z,8.32
2023-04-21T09:11:01.465Z,7.97
2023-04-21T09:13:36.045Z,9.05
2023-04-21T09:16:07.975Z,9.27
2023-04-21T09:18:40.331Z,7.75
2023-04-21T09:21:13.014Z,8.20
2023-04-21T09:23:48.185Z,8.55
2023-04-21T09:26:16.426Z,8.02
2023-04-21T09:28:44.501Z,8.20
2023-04-21T09:31:20.129Z,8.57
2023-04-21T09:34:18.306Z,8.20
2023-04-21T09:36:46.224Z,9.88
2023-04-21T09:39:35.783Z,7.97
2023-04-21T09:41:59.776Z,9.35
2023-04-21T09:44:27.401Z,8.82
2023-04-21T09:47:04.217Z,7.13
2023-04-21T09:49:35.141Z,7.53
2023-04-21T09:52:17.141Z,8.60
2023-04-21T09:55:00.405Z,10.82
2023-04-21T09:57:29.290Z,7.95
2023-04-21T10:00:02.207Z,7.82
2023-04-21T10:02:31.868Z,6.93
2023-04-21T10:04:59.265Z,7.97
2023-04-21T10:07:26.200Z,7.07
2023-04-21T10:09:54.944Z,8.15
2023-04-21T10:12:22.814Z,9.70
2023-04-21T10:14:53.666Z,7.75
2023-04-21T10:17:25.156Z,6.88
2023-04-21T10:19:53.809Z,6.20
2023-04-21T10:22:28.031Z,8.70
2023-04-21T10:24:59.770Z,6.47
2023-04-21T10:27:37.261Z,6.32
2023-04-21T10:30:29.104Z,6.00
2023-04-21T10:33:06.437Z,7.85
2023-04-21T10:35:52.701Z,6.50
2023-04-21T10:38:37.102Z,5.43
2023-04-21T10:41:22.883Z,5.10
2023-04-21T10:43:51.505Z,5.97
2023-04-21T10:46:35.099Z,7.50
2023-04-21T10:49:06.197Z,5.05
2023-04-21T10:51:33.281Z,5.65
2023-04-21T10:54:01.270Z,7.18
2023-04-21T10:56:29.550Z,6.28
2023-04-21T10:58:57.297Z,5.45
2023-04-21T11:01:24.949Z,5.75
2023-04-21T11:03:52.799Z,5.85
2023-04-21T11:06:20.066Z,6.18
2023-04-21T11:08:56.610Z,5.47
2023-04-21T11:11:24.751Z,5.22
2023-04-21T11:13:53.345Z,5.80
2023-04-21T11:16:20.932Z,5.95
2023-04-21T11:18:48.596Z,5.55
2023-04-21T11:21:18.098Z,6.63
2023-04-21T11:23:53.416Z,6.05
2023-04-21T11:26:33.564Z,7.78
2023-04-21T11:29:02.023Z,5.55
2023-04-21T11:31:30.053Z,5.95
2023-04-21T11:33:58.246Z,6.38
2023-04-21T11:36:25.332Z,5.57
2023-04-21T11:38:52.038Z,6.50
2023-04-21T11:41:25.675Z,5.13
2023-04-21T11:43:52.930Z,4.47
2023-04-21T11:46:26.845Z,4.45
2023-04-21T11:49:07.770Z,6.82
2023-04-21T11:51:36.471Z,4.00
2023-04-21T11:54:05.734Z,4.72
2023-04-21T11:56:43.172Z,4.93
2023-04-21T11:59:12.349Z,4.63
2023-04-21T12:01:49.582Z,4.95
2023-04-21T12:04:22.021Z,4.88
2023-04-21T12:07:00.556Z,4.78
2023-04-21T12:09:28.419Z,6.13
2023-04-21T12:12:01.719Z,5.95
2023-04-21T12:14:28.387Z,4.88
2023-04-21T12:16:56.834Z,4.35
2023-04-21T12:19:39.895Z,4.57
2023-04-21T12:22:18.692Z,4.43
2023-04-21T12:24:46.348Z,4.22
2023-04-21T12:27:13.520Z,4.78
2023-04-21T12:29:41.206Z,3.97
2023-04-21T12:32:09.540Z,4.15
2023-04-21T12:34:36.779Z,4.07
2023-04-21T12:37:03.727Z,4.38
2023-04-21T12:39:31.352Z,4.22
2023-04-21T12:41:58.454Z,5.88
2023-04-21T12:44:25.933Z,5.03
2023-04-21T12:46:53.061Z,3.55
2023-04-21T12:49:20.233Z,4.40
2023-04-21T12:51:49.446Z,4.72
2023-04-21T12:54:16.246Z,4.63
2023-04-21T12:56:43.135Z,3.65
2023-04-21T12:59:10.952Z,4.07
2023-04-21T13:01:39.021Z,4.00
2023-04-21T13:04:08.116Z,4.30
2023-04-21T13:06:35.296Z,5.82
2023-04-21T13:09:02.166Z,3.97
2023-04-21T13:11:28.941Z,3.75
2023-04-21T13:13:55.607Z,5.22
2023-04-21T13:16:22.451Z,4.55
2023-04-21T13:18:49.201Z,4.78
2023-04-21T13:21:15.991Z,5.60
2023-04-21T13:23:42.730Z,4.47
2023-04-21T13:26:09.481Z,3.90
2023-04-21T13:28:36.484Z,3.35
2023-04-21T13:31:03.618Z,5.78
2023-04-21T13:33:34.819Z,4.32
2023-04-21T13:36:03.317Z,6.32
2023-04-21T13:38:31.174Z,3.58
2023-04-21T13:40:58.331Z,4.43
2023-04-21T13:43:26.314Z,3.25
2023-04-21T13:45:53.189Z,3.13
2023-04-21T13:48:22.707Z,5.75
2023-04-21T13:50:49.934Z,4.65
2023-04-21T13:53:18.135Z,5.65
2023-04-21T13:55:47.492Z,3.22
2023-04-21T13:58:16.777Z,3.42
2023-04-21T14:00:43.739Z,3.55
2023-04-21T14:03:11.643Z,3.40
2023-04-21T14:05:39.032Z,3.80
2023-04-21T14:08:06.435Z,2.70
2023-04-21T14:10:33.226Z,2.58
2023-04-21T14:13:00.059Z,2.83
2023-04-21T14:15:27.014Z,8.35
2023-04-21T14:17:54.385Z,8.07
2023-04-21T14:20:21.210Z,3.15
2023-04-21T14:22:48.093Z,4.85
2023-04-21T14:25:15.065Z,3.30
2023-04-21T14:27:42.010Z,3.15
2023-04-21T14:30:10.481Z,7.40
2023-04-21T14:32:37.522Z,4.22
2023-04-21T14:35:05.600Z,2.90
2023-04-21T14:37:33.091Z,3.33
2023-04-21T14:40:00.033Z,4.78
2023-04-21T14:42:26.952Z,3.60
2023-04-21T14:44:53.914Z,3.78
2023-04-21T14:47:21.822Z,3.95
2023-04-21T14:49:55.155Z,3.42
2023-04-21T14:52:24.627Z,3.00
2023-04-21T14:54:51.617Z,3.60
2023-04-21T14:57:21.057Z,4.80
2023-04-21T14:59:52.842Z,3.03
2023-04-21T15:02:20.790Z,3.80
2023-04-21T15:04:48.257Z,3.55
2023-04-21T15:07:17.851Z,3.15
2023-04-21T15:09:48.872Z,3.80
2023-04-21T15:12:15.824Z,4.40
2023-04-21T15:14:42.579Z,3.28
2023-04-21T15:17:09.403Z,3.28
2023-04-21T15:19:36.502Z,3.72
2023-04-21T15:22:04.838Z,3.60
2023-04-21T15:24:31.613Z,3.95
2023-04-21T15:26:58.400Z,3.15
2023-04-21T15:29:25.306Z,5.03
2023-04-21T15:31:51.985Z,3.00
2023-04-21T15:34:18.653Z,3.25
2023-04-21T15:36:45.469Z,2.90
2023-04-21T15:39:14.142Z,3.00
2023-04-21T15:41:41.110Z,4.32
2023-04-21T15:44:08.009Z,2.70
2023-04-21T15:46:34.810Z,7.20
2023-04-21T15:49:01.594Z,2.88
2023-04-21T15:51:28.448Z,2.55
2023-04-21T15:53:55.405Z,3.95
2023-04-21T15:56:22.075Z,2.92
2023-04-21T15:58:48.768Z,2.83
2023-04-21T16:01:15.552Z,5.97
2023-04-21T16:03:42.669Z,7.30
2023-04-21T16:06:09.621Z,3.72
2023-04-21T16:08:36.479Z,5.22
2023-04-21T16:11:03.339Z,6.30
2023-04-21T16:13:30.069Z,3.55
2023-04-21T16:15:57.075Z,3.25
2023-04-21T16:18:24.011Z,3.22
2023-04-21T16:20:51.204Z,6.38
2023-04-21T16:23:18.118Z,2.78
2023-04-21T16:25:45.100Z,3.42
2023-04-21T16:28:11.956Z,3.55
2023-04-21T16:30:43.164Z,3.63
2023-04-21T16:33:16.462Z,3.17
2023-04-21T16:35:43.247Z,5.53
2023-04-21T16:38:10.006Z,6.43
2023-04-21T16:40:37.071Z,3.40
2023-04-21T16:43:03.898Z,7.30
2023-04-21T16:45:30.826Z,5.07
2023-04-21T16:47:58.085Z,7.07
2023-04-21T16:50:25.296Z,4.15
2023-04-21T16:52:52.120Z,3.63
2023-04-21T16:55:19.114Z,3.42
2023-04-21T16:57:46.173Z,6.18
2023-04-21T17:00:13.685Z,4.25
2023-04-21T17:02:40.457Z,4.03
2023-04-21T17:05:07.629Z,5.93
2023-04-21T17:07:34.601Z,5.97
2023-04-21T17:10:01.357Z,4.65
2023-04-21T17:12:28.137Z,4.82
2023-04-21T17:14:55.060Z,5.45
2023-04-21T17:17:22.114Z,6.68
2023-04-21T17:19:49.063Z,6.15
2023-04-21T17:22:15.813Z,7.00
2023-04-21T17:24:52.620Z,7.35
2023-04-21T17:27:21.431Z,7.07
2023-04-21T17:29:48.390Z,7.00
2023-04-21T17:32:15.331Z,6.53
2023-04-21T17:34:42.259Z,6.68
2023-04-21T17:37:09.386Z,6.68
2023-04-21T17:39:36.309Z,7.28
2023-04-21T17:42:03.120Z,7.93
2023-04-21T17:44:30.021Z,4.90
2023-04-21T17:46:58.056Z,7.13
2023-04-21T17:49:25.404Z,6.95
2023-04-21T17:51:52.349Z,15.05
2023-04-21T17:54:19.148Z,10.52
2023-04-21T17:56:46.309Z,5.35
2023-04-21T17:59:13.820Z,5.40
2023-04-21T18:01:40.762Z,7.72
2023-04-21T18:04:07.958Z,5.38
2023-04-21T18:06:35.928Z,4.55
2023-04-21T18:09:04.896Z,5.07
2023-04-21T18:11:32.019Z,5.60
2023-04-21T18:13:58.976Z,4.38
2023-04-21T18:16:26.388Z,4.63
2023-04-21T18:18:53.323Z,4.80
2023-04-21T18:21:20.854Z,3.72
2023-04-21T18:23:47.548Z,4.85
2023-04-21T18:26:14.315Z,4.28
2023-04-21T18:28:41.033Z,3.90
2023-04-21T18:31:07.852Z,3.90
2023-04-21T18:33:34.705Z,6.30
2023-04-21T18:36:01.389Z,11.55
2023-04-21T18:38:28.043Z,8.48
2023-04-21T18:40:55.571Z,6.10
2023-04-21T18:43:22.547Z,5.80
2023-04-21T18:45:49.391Z,6.75
2023-04-21T18:48:16.188Z,6.15
2023-04-21T18:50:43.958Z,6.60
2023-04-21T18:53:10.684Z,7.55
2023-04-21T18:55:37.908Z,6.72
2023-04-21T18:58:05.010Z,5.90
2023-04-21T19:00:32.266Z,5.85
2023-04-21T19:03:02.804Z,5.85
2023-04-21T19:05:31.579Z,5.25
2023-04-21T19:07:58.680Z,5.03
2023-04-21T19:10:26.074Z,5.80
2023-04-21T19:12:53.096Z,6.15
2023-04-21T19:15:21.255Z,7.13
2023-04-21T19:17:48.088Z,6.05
2023-04-21T19:20:14.823Z,5.40
2023-04-21T19:22:42.040Z,8.25
2023-04-21T19:25:09.377Z,5.05
2023-04-21T19:27:37.260Z,6.10
2023-04-21T19:30:05.697Z,6.43
2023-04-21T19:32:32.420Z,5.47
2023-04-21T19:34:59.315Z,6.22
2023-04-21T19:37:26.490Z,6.30
2023-04-21T19:39:53.325Z,10.38
2023-04-21T19:42:20.064Z,7.65
2023-04-21T19:44:47.890Z,7.17
2023-04-21T19:47:14.597Z,8.73
2023-04-21T19:49:41.265Z,10.87
2023-04-21T19:52:07.984Z,11.65
2023-04-21T19:54:34.706Z,11.37
2023-04-21T19:57:01.777Z,11.57
2023-04-21T19:59:28.600Z,11.77
2023-04-21T20:01:55.625Z,13.60
2023-04-21T20:04:22.676Z,10.90
2023-04-21T20:06:49.462Z,13.03
2023-04-21T20:09:16.196Z,11.17
2023-04-21T20:11:43.470Z,10.07
2023-04-21T20:14:10.706Z,8.60
2023-04-21T20:16:37.841Z,9.00
2023-04-21T20:19:04.686Z,7.97
2023-04-21T20:21:33.271Z,9.67
2023-04-21T20:23:59.941Z,11.23
2023-04-21T20:26:26.770Z,8.63
2023-04-21T20:28:53.494Z,9.10
2023-04-21T20:31:23.655Z,8.00
2023-04-21T20:33:50.673Z,9.50
2023-04-21T20:36:18.378Z,8.77
2023-04-21T20:38:46.523Z,9.47
2023-04-21T20:41:13.546Z,9.13
2023-04-21T20:43:40.391Z,8.67
2023-04-21T20:46:08.824Z,11.77
2023-04-21T20:48:35.897Z,10.83
2023-04-21T20:51:02.813Z,12.60
2023-04-21T20:53:29.507Z,9.80
2023-04-21T20:55:56.290Z,9.70
2023-04-21T20:58:24.432Z,9.27
2023-04-21T21:00:51.313Z,11.03
2023-04-21T21:03:20.321Z,9.00
2023-04-21T21:05:47.496Z,8.30
2023-04-21T21:08:15.123Z,7.97
2023-04-21T21:10:42.172Z,10.20
2023-04-21T21:13:08.916Z,8.07
2023-04-21T21:15:35.772Z,8.33
2023-04-21T21:18:02.664Z,14.93
2023-04-21T21:20:30.933Z,8.47
2023-04-21T21:22:57.713Z,7.83
2023-04-21T21:25:24.387Z,9.27
2023-04-21T21:27:51.060Z,10.27
2023-04-21T21:30:17.723Z,13.43
2023-04-21T21:32:44.465Z,11.37
2023-04-21T21:35:11.968Z,11.70
2023-04-21T21:37:39.182Z,7.70
2023-04-21T21:40:06.955Z,7.63
2023-04-21T21:42:33.756Z,9.47
2023-04-21T21:45:00.946Z,9.43
2023-04-21T21:47:27.787Z,7.83
2023-04-21T21:49:55.929Z,8.83
2023-04-21T21:52:22.826Z,7.30
2023-04-21T21:54:49.525Z,8.50
2023-04-21T21:57:16.875Z,8.13
2023-04-21T21:59:43.928Z,8.40
2023-04-21T22:02:10.823Z,8.13
2023-04-21T22:04:37.904Z,8.03
2023-04-21T22:07:05.202Z,9.27
2023-04-21T22:09:32.398Z,12.30
2023-04-21T22:11:59.149Z,10.47
2023-04-21T22:14:25.844Z,8.50
2023-04-21T22:16:53.984Z,9.97
2023-04-21T22:19:20.958Z,9.13
2023-04-21T22:21:47.969Z,10.57
2023-04-21T22:24:14.985Z,8.70
2023-04-21T22:26:42.582Z,10.50
2023-04-21T22:29:09.264Z,8.00
2023-04-21T22:31:36.420Z,7.70
2023-04-21T22:34:03.462Z,8.50
2023-04-21T22:36:32.240Z,8.90
2023-04-21T22:38:58.909Z,10.97
2023-04-21T22:41:26.612Z,7.83
2023-04-21T22:43:53.538Z,8.57
2023-04-21T22:46:20.318Z,9.07
2023-04-21T22:48:48.598Z,11.73
2023-04-21T22:51:15.330Z,11.80
2023-04-21T22:53:42.006Z,11.37
2023-04-21T22:56:08.708Z,9.40
2023-04-21T22:58:35.846Z,9.37
2023-04-21T23:01:02.814Z,9.57
2023-04-21T23:03:31.122Z,9.00
2023-04-21T23:05:57.965Z,10.80
2023-04-21T23:08:24.852Z,9.93
2023-04-21T23:10:51.681Z,9.13
2023-04-21T23:13:18.336Z,9.33
2023-04-21T23:15:45.007Z,10.37
2023-04-21T23:18:11.742Z,9.80
2023-04-21T23:20:38.603Z,8.60
2023-04-21T23:23:05.576Z,8.47
2023-04-21T23:25:32.333Z,8.63
2023-04-21T23:27:59.028Z,9.27
2023-04-21T23:30:26.050Z,8.20
2023-04-21T23:32:52.872Z,14.03
2023-04-21T23:35:19.694Z,9.13
2023-04-21T23:37:46.577Z,9.00
2023-04-21T23:40:13.425Z,8.80
2023-04-21T23:42:40.732Z,8.87
2023-04-21T23:45:08.051Z,11.03
2023-04-21T23:47:35.022Z,11.27
2023-04-21T23:50:01.771Z,10.23
2023-04-21T23:52:28.465Z,8.17
2023-04-21T23:54:55.214Z,7.63
2023-04-21T23:57:22.020Z,8.43
2023-04-21T23:59:48.829Z,8.00
